sensor_id;sensor_type;location;lat;lon;timestamp;P1;durP1;ratioP1;P2;durP2;ratioP2
20721;SDS011;10522;52.198;9.890;2023-05-10T00:01:57;4.93;;;3.23;;
20721;SDS011;10522;52.198;9.890;2023-05-10T00:04:23;8.37;;;3.00;;
20721;SDS011;10522;52.198;9.890;2023-05-10T00:06:52;4.40;;;3.00;;
20721;SDS011;10522;52.198;9.890;2023-05-10T00:09:18;4.03;;;3.10;;
20721;SDS011;10522;52.198;9.890;2023-05-10T00:11:43;6.93;;;3.40;;
20721;SDS011;10522;52.198;9.890;2023-05-10T00:14:09;3.33;;;2.77;;
20721;SDS011;10522;52.198;9.890;2023-05-10T00:16:35;4.83;;;3.17;;
20721;SDS011;10522;52.198;9.890;2023-05-10T00:19:00;5.37;;;3.20;;
20721;SDS011;10522;52.198;9.890;2023-05-10T00:21:26;7.10;;;2.90;;
20721;SDS011;10522;52.198;9.890;2023-05-10T00:23:53;5.77;;;3.40;;
20721;SDS011;10522;52.198;9.890;2023-05-10T00:26:19;4.13;;;2.80;;
20721;SDS011;10522;52.198;9.890;2023-05-10T00:28:44;11.17;;;3.00;;
20721;SDS011;10522;52.198;9.890;2023-05-10T00:31:10;4.97;;;3.00;;
20721;SDS011;10522;52.198;9.890;2023-05-10T00:33:36;4.90;;;3.10;;
20721;SDS011;10522;52.198;9.890;2023-05-10T00:36:01;6.57;;;3.00;;
20721;SDS011;10522;52.198;9.890;2023-05-10T00:38:27;4.33;;;2.90;;
20721;SDS011;10522;52.198;9.890;2023-05-10T00:40:52;5.80;;;3.13;;
20721;SDS011;10522;52.198;9.890;2023-05-10T00:43:18;5.00;;;3.33;;
20721;SDS011;10522;52.198;9.890;2023-05-10T00:45:44;6.20;;;3.80;;
20721;SDS011;10522;52.198;9.890;2023-05-10T00:48:09;7.10;;;3.83;;
20721;SDS011;10522;52.198;9.890;2023-05-10T00:50:35;6.03;;;2.97;;
20721;SDS011;10522;52.198;9.890;2023-05-10T00:53:01;4.40;;;3.40;;
20721;SDS011;10522;52.198;9.890;2023-05-10T00:55:28;5.50;;;3.63;;
20721;SDS011;10522;52.198;9.890;2023-05-10T00:57:53;6.87;;;3.63;;
20721;SDS011;10522;52.198;9.890;2023-05-10T01:00:19;4.53;;;3.60;;
20721;SDS011;10522;52.198;9.890;2023-05-10T01:02:45;4.60;;;3.43;;
20721;SDS011;10522;52.198;9.890;2023-05-10T01:05:11;5.10;;;3.40;;
20721;SDS011;10522;52.198;9.890;2023-05-10T01:07:37;3.83;;;3.30;;
20721;SDS011;10522;52.198;9.890;2023-05-10T01:10:04;5.30;;;3.13;;
20721;SDS011;10522;52.198;9.890;2023-05-10T01:12:34;3.77;;;2.97;;
20721;SDS011;10522;52.198;9.890;2023-05-10T01:15:08;5.60;;;2.90;;
20721;SDS011;10522;52.198;9.890;2023-05-10T01:17:36;5.27;;;3.80;;
20721;SDS011;10522;52.198;9.890;2023-05-10T01:20:04;4.53;;;3.03;;
20721;SDS011;10522;52.198;9.890;2023-05-10T01:22:47;5.63;;;3.20;;
20721;SDS011;10522;52.198;9.890;2023-05-10T01:31:03;6.33;;;3.33;;
20721;SDS011;10522;52.198;9.890;2023-05-10T01:33:39;5.63;;;3.53;;
20721;SDS011;10522;52.198;9.890;2023-05-10T01:38:42;4.40;;;2.90;;
20721;SDS011;10522;52.198;9.890;2023-05-10T01:44:09;5.13;;;3.17;;
20721;SDS011;10522;52.198;9.890;2023-05-10T01:46:36;8.87;;;3.37;;
20721;SDS011;10522;52.198;9.890;2023-05-10T01:49:04;5.77;;;3.73;;
20721;SDS011;10522;52.198;9.890;2023-05-10T01:51:44;4.40;;;3.47;;
20721;SDS011;10522;52.198;9.890;2023-05-10T01:54:16;4.80;;;4.27;;
20721;SDS011;10522;52.198;9.890;2023-05-10T01:56:45;7.13;;;3.80;;
20721;SDS011;10522;52.198;9.890;2023-05-10T01:59:16;5.73;;;3.77;;
20721;SDS011;10522;52.198;9.890;2023-05-10T02:01:44;4.43;;;3.70;;
20721;SDS011;10522;52.198;9.890;2023-05-10T02:04:13;6.00;;;4.23;;
20721;SDS011;10522;52.198;9.890;2023-05-10T02:06:41;6.13;;;3.27;;
20721;SDS011;10522;52.198;9.890;2023-05-10T02:09:09;8.27;;;3.70;;
20721;SDS011;10522;52.198;9.890;2023-05-10T02:11:37;5.03;;;3.90;;
20721;SDS011;10522;52.198;9.890;2023-05-10T02:14:05;7.60;;;4.10;;
20721;SDS011;10522;52.198;9.890;2023-05-10T02:16:34;7.40;;;4.10;;
20721;SDS011;10522;52.198;9.890;2023-05-10T02:19:02;8.37;;;4.13;;
20721;SDS011;10522;52.198;9.890;2023-05-10T02:21:28;6.80;;;3.87;;
20721;SDS011;10522;52.198;9.890;2023-05-10T02:23:55;6.67;;;4.20;;
20721;SDS011;10522;52.198;9.890;2023-05-10T02:26:22;5.60;;;4.10;;
20721;SDS011;10522;52.198;9.890;2023-05-10T02:28:50;6.40;;;4.37;;
20721;SDS011;10522;52.198;9.890;2023-05-10T02:31:16;7.17;;;3.97;;
20721;SDS011;10522;52.198;9.890;2023-05-10T02:33:43;9.43;;;4.60;;
20721;SDS011;10522;52.198;9.890;2023-05-10T02:36:10;12.43;;;4.23;;
20721;SDS011;10522;52.198;9.890;2023-05-10T02:38:38;6.57;;;3.90;;
20721;SDS011;10522;52.198;9.890;2023-05-10T02:41:05;7.00;;;4.30;;
20721;SDS011;10522;52.198;9.890;2023-05-10T02:43:32;6.40;;;4.20;;
20721;SDS011;10522;52.198;9.890;2023-05-10T02:45:59;9.47;;;4.23;;
20721;SDS011;10522;52.198;9.890;2023-05-10T02:48:24;6.80;;;4.30;;
20721;SDS011;10522;52.198;9.890;2023-05-10T02:50:50;7.00;;;4.10;;
20721;SDS011;10522;52.198;9.890;2023-05-10T02:53:22;6.57;;;3.60;;
20721;SDS011;10522;52.198;9.890;2023-05-10T02:55:53;7.00;;;4.17;;
20721;SDS011;10522;52.198;9.890;2023-05-10T02:58:22;4.60;;;3.87;;
20721;SDS011;10522;52.198;9.890;2023-05-10T03:00:48;7.77;;;4.20;;
20721;SDS011;10522;52.198;9.890;2023-05-10T03:03:13;6.50;;;3.83;;
20721;SDS011;10522;52.198;9.890;2023-05-10T03:05:39;5.97;;;3.47;;
20721;SDS011;10522;52.198;9.890;2023-05-10T03:08:04;5.20;;;4.10;;
20721;SDS011;10522;52.198;9.890;2023-05-10T03:10:31;9.93;;;4.37;;
20721;SDS011;10522;52.198;9.890;2023-05-10T03:18:21;7.40;;;4.60;;
20721;SDS011;10522;52.198;9.890;2023-05-10T03:20:56;6.27;;;4.40;;
20721;SDS011;10522;52.198;9.890;2023-05-10T03:23:27;5.80;;;4.70;;
20721;SDS011;10522;52.198;9.890;2023-05-10T03:25:59;7.50;;;4.93;;
20721;SDS011;10522;52.198;9.890;2023-05-10T03:28:26;5.70;;;4.50;;
20721;SDS011;10522;52.198;9.890;2023-05-10T03:30:53;8.37;;;5.10;;
20721;SDS011;10522;52.198;9.890;2023-05-10T03:33:19;8.57;;;5.17;;
20721;SDS011;10522;52.198;9.890;2023-05-10T03:35:45;7.87;;;5.03;;
20721;SDS011;10522;52.198;9.890;2023-05-10T03:38:14;11.53;;;5.93;;
20721;SDS011;10522;52.198;9.890;2023-05-10T03:40:39;5.50;;;4.70;;
20721;SDS011;10522;52.198;9.890;2023-05-10T03:43:05;7.50;;;5.20;;
20721;SDS011;10522;52.198;9.890;2023-05-10T03:45:31;9.23;;;6.27;;
20721;SDS011;10522;52.198;9.890;2023-05-10T03:47:57;8.30;;;6.23;;
20721;SDS011;10522;52.198;9.890;2023-05-10T03:50:23;9.47;;;5.83;;
20721;SDS011;10522;52.198;9.890;2023-05-10T03:52:48;12.23;;;5.83;;
20721;SDS011;10522;52.198;9.890;2023-05-10T03:55:14;8.10;;;5.70;;
20721;SDS011;10522;52.198;9.890;2023-05-10T03:57:40;8.20;;;5.30;;
20721;SDS011;10522;52.198;9.890;2023-05-10T04:00:05;8.33;;;5.80;;
20721;SDS011;10522;52.198;9.890;2023-05-10T04:02:32;7.33;;;6.13;;
20721;SDS011;10522;52.198;9.890;2023-05-10T04:04:57;13.80;;;6.13;;
20721;SDS011;10522;52.198;9.890;2023-05-10T04:07:23;10.83;;;6.43;;
20721;SDS011;10522;52.198;9.890;2023-05-10T04:09:49;7.77;;;6.23;;
20721;SDS011;10522;52.198;9.890;2023-05-10T04:12:14;7.90;;;6.10;;
20721;SDS011;10522;52.198;9.890;2023-05-10T04:14:40;9.07;;;5.57;;
20721;SDS011;10522;52.198;9.890;2023-05-10T04:17:05;8.40;;;5.53;;
20721;SDS011;10522;52.198;9.890;2023-05-10T04:19:31;8.23;;;5.23;;
20721;SDS011;10522;52.198;9.890;2023-05-10T04:21:57;9.90;;;6.30;;
20721;SDS011;10522;52.198;9.890;2023-05-10T04:24:23;7.40;;;5.50;;
20721;SDS011;10522;52.198;9.890;2023-05-10T04:26:49;10.93;;;6.33;;
20721;SDS011;10522;52.198;9.890;2023-05-10T04:29:15;10.87;;;6.20;;
20721;SDS011;10522;52.198;9.890;2023-05-10T04:31:41;7.97;;;5.43;;
20721;SDS011;10522;52.198;9.890;2023-05-10T04:34:07;7.17;;;5.60;;
20721;SDS011;10522;52.198;9.890;2023-05-10T04:36:32;11.10;;;6.33;;
20721;SDS011;10522;52.198;9.890;2023-05-10T04:39:00;9.17;;;6.37;;
20721;SDS011;10522;52.198;9.890;2023-05-10T04:41:27;8.60;;;6.20;;
20721;SDS011;10522;52.198;9.890;2023-05-10T04:43:53;10.07;;;6.50;;
20721;SDS011;10522;52.198;9.890;2023-05-10T04:46:19;10.47;;;6.83;;
20721;SDS011;10522;52.198;9.890;2023-05-10T04:48:44;7.53;;;6.17;;
20721;SDS011;10522;52.198;9.890;2023-05-10T04:51:10;10.40;;;6.80;;
20721;SDS011;10522;52.198;9.890;2023-05-10T04:53:36;9.07;;;6.43;;
20721;SDS011;10522;52.198;9.890;2023-05-10T04:56:01;8.10;;;6.40;;
20721;SDS011;10522;52.198;9.890;2023-05-10T04:58:27;11.97;;;7.07;;
20721;SDS011;10522;52.198;9.890;2023-05-10T05:00:53;9.00;;;7.20;;
20721;SDS011;10522;52.198;9.890;2023-05-10T05:03:18;8.10;;;6.33;;
20721;SDS011;10522;52.198;9.890;2023-05-10T05:05:44;8.90;;;5.83;;
20721;SDS011;10522;52.198;9.890;2023-05-10T05:08:10;8.67;;;4.87;;
20721;SDS011;10522;52.198;9.890;2023-05-10T05:10:35;6.83;;;4.80;;
20721;SDS011;10522;52.198;9.890;2023-05-10T05:13:01;6.13;;;4.90;;
20721;SDS011;10522;52.198;9.890;2023-05-10T05:15:26;8.87;;;4.67;;
20721;SDS011;10522;52.198;9.890;2023-05-10T05:17:52;7.27;;;4.67;;
20721;SDS011;10522;52.198;9.890;2023-05-10T05:20:18;8.20;;;5.47;;
20721;SDS011;10522;52.198;9.890;2023-05-10T05:22:44;16.30;;;6.63;;
20721;SDS011;10522;52.198;9.890;2023-05-10T05:25:09;8.03;;;5.03;;
20721;SDS011;10522;52.198;9.890;2023-05-10T05:27:36;9.60;;;4.53;;
20721;SDS011;10522;52.198;9.890;2023-05-10T05:30:02;6.50;;;5.27;;
20721;SDS011;10522;52.198;9.890;2023-05-10T05:32:29;10.00;;;5.33;;
20721;SDS011;10522;52.198;9.890;2023-05-10T05:34:54;5.33;;;4.73;;
20721;SDS011;10522;52.198;9.890;2023-05-10T05:37:20;6.03;;;5.10;;
20721;SDS011;10522;52.198;9.890;2023-05-10T05:39:49;6.03;;;4.97;;
20721;SDS011;10522;52.198;9.890;2023-05-10T05:42:15;8.27;;;4.43;;
20721;SDS011;10522;52.198;9.890;2023-05-10T05:44:42;7.53;;;4.93;;
20721;SDS011;10522;52.198;9.890;2023-05-10T05:47:08;8.67;;;5.53;;
20721;SDS011;10522;52.198;9.890;2023-05-10T05:49:34;6.60;;;5.20;;
20721;SDS011;10522;52.198;9.890;2023-05-10T05:52:00;6.63;;;4.67;;
20721;SDS011;10522;52.198;9.890;2023-05-10T05:54:26;5.37;;;4.57;;
20721;SDS011;10522;52.198;9.890;2023-05-10T05:56:58;11.97;;;5.00;;
20721;SDS011;10522;52.198;9.890;2023-05-10T05:59:25;11.70;;;5.47;;
20721;SDS011;10522;52.198;9.890;2023-05-10T06:01:51;7.93;;;4.70;;
20721;SDS011;10522;52.198;9.890;2023-05-10T06:04:17;8.33;;;5.40;;
20721;SDS011;10522;52.198;9.890;2023-05-10T06:06:43;7.97;;;5.03;;
20721;SDS011;10522;52.198;9.890;2023-05-10T06:09:09;10.57;;;5.53;;
20721;SDS011;10522;52.198;9.890;2023-05-10T06:11:35;7.33;;;5.97;;
20721;SDS011;10522;52.198;9.890;2023-05-10T06:14:01;6.30;;;5.20;;
20721;SDS011;10522;52.198;9.890;2023-05-10T06:16:28;6.53;;;5.23;;
20721;SDS011;10522;52.198;9.890;2023-05-10T06:18:54;12.17;;;6.00;;
20721;SDS011;10522;52.198;9.890;2023-05-10T06:21:20;6.73;;;5.10;;
20721;SDS011;10522;52.198;9.890;2023-05-10T06:23:46;7.03;;;5.60;;
20721;SDS011;10522;52.198;9.890;2023-05-10T06:26:11;8.07;;;5.80;;
20721;SDS011;10522;52.198;9.890;2023-05-10T06:28:38;7.23;;;5.07;;
20721;SDS011;10522;52.198;9.890;2023-05-10T06:31:04;7.67;;;5.43;;
20721;SDS011;10522;52.198;9.890;2023-05-10T06:33:30;7.83;;;5.30;;
20721;SDS011;10522;52.198;9.890;2023-05-10T06:35:56;6.83;;;5.50;;
20721;SDS011;10522;52.198;9.890;2023-05-10T06:38:22;5.83;;;4.87;;
20721;SDS011;10522;52.198;9.890;2023-05-10T06:40:47;5.47;;;4.97;;
20721;SDS011;10522;52.198;9.890;2023-05-10T06:43:13;6.97;;;4.23;;
20721;SDS011;10522;52.198;9.890;2023-05-10T06:45:39;8.90;;;5.50;;
20721;SDS011;10522;52.198;9.890;2023-05-10T06:48:05;7.17;;;5.30;;
20721;SDS011;10522;52.198;9.890;2023-05-10T06:50:31;7.13;;;5.27;;
20721;SDS011;10522;52.198;9.890;2023-05-10T06:52:57;5.53;;;4.40;;
20721;SDS011;10522;52.198;9.890;2023-05-10T06:55:23;6.03;;;4.73;;
20721;SDS011;10522;52.198;9.890;2023-05-10T06:57:48;5.07;;;4.57;;
20721;SDS011;10522;52.198;9.890;2023-05-10T07:00:15;5.33;;;4.40;;
20721;SDS011;10522;52.198;9.890;2023-05-10T07:02:41;5.60;;;5.00;;
20721;SDS011;10522;52.198;9.890;2023-05-10T07:05:07;6.20;;;5.07;;
20721;SDS011;10522;52.198;9.890;2023-05-10T07:07:33;7.77;;;4.73;;
20721;SDS011;10522;52.198;9.890;2023-05-10T07:09:59;8.07;;;5.13;;
20721;SDS011;10522;52.198;9.890;2023-05-10T07:12:24;4.70;;;4.20;;
20721;SDS011;10522;52.198;9.890;2023-05-10T07:14:50;6.37;;;4.97;;
20721;SDS011;10522;52.198;9.890;2023-05-10T07:17:15;6.07;;;4.60;;
20721;SDS011;10522;52.198;9.890;2023-05-10T07:19:41;5.60;;;4.53;;
20721;SDS011;10522;52.198;9.890;2023-05-10T07:22:07;4.50;;;4.07;;
20721;SDS011;10522;52.198;9.890;2023-05-10T07:24:33;4.30;;;3.90;;
20721;SDS011;10522;52.198;9.890;2023-05-10T07:26:59;5.17;;;3.77;;
20721;SDS011;10522;52.198;9.890;2023-05-10T07:29:24;4.87;;;4.10;;
20721;SDS011;10522;52.198;9.890;2023-05-10T07:31:50;8.27;;;4.63;;
20721;SDS011;10522;52.198;9.890;2023-05-10T07:34:16;4.77;;;3.33;;
20721;SDS011;10522;52.198;9.890;2023-05-10T07:36:42;6.00;;;4.03;;
20721;SDS011;10522;52.198;9.890;2023-05-10T07:39:07;4.83;;;3.57;;
20721;SDS011;10522;52.198;9.890;2023-05-10T07:41:33;5.40;;;4.17;;
20721;SDS011;10522;52.198;9.890;2023-05-10T07:43:58;3.80;;;3.03;;
20721;SDS011;10522;52.198;9.890;2023-05-10T07:46:24;4.30;;;3.30;;
20721;SDS011;10522;52.198;9.890;2023-05-10T07:48:50;7.43;;;3.40;;
20721;SDS011;10522;52.198;9.890;2023-05-10T07:51:15;3.50;;;3.20;;
20721;SDS011;10522;52.198;9.890;2023-05-10T07:53:41;4.20;;;3.80;;
20721;SDS011;10522;52.198;9.890;2023-05-10T07:56:20;4.60;;;3.40;;
20721;SDS011;10522;52.198;9.890;2023-05-10T07:58:46;4.10;;;3.70;;
20721;SDS011;10522;52.198;9.890;2023-05-10T08:01:11;4.07;;;3.13;;
20721;SDS011;10522;52.198;9.890;2023-05-10T08:03:37;4.90;;;3.43;;
20721;SDS011;10522;52.198;9.890;2023-05-10T08:06:02;3.57;;;3.27;;
20721;SDS011;10522;52.198;9.890;2023-05-10T08:08:29;6.17;;;2.90;;
20721;SDS011;10522;52.198;9.890;2023-05-10T08:10:54;4.47;;;2.63;;
20721;SDS011;10522;52.198;9.890;2023-05-10T08:13:20;3.30;;;3.00;;
20721;SDS011;10522;52.198;9.890;2023-05-10T08:15:46;4.03;;;3.27;;
20721;SDS011;10522;52.198;9.890;2023-05-10T08:18:12;3.90;;;3.50;;
20721;SDS011;10522;52.198;9.890;2023-05-10T08:20:38;5.33;;;3.27;;
20721;SDS011;10522;52.198;9.890;2023-05-10T08:23:03;4.50;;;3.97;;
20721;SDS011;10522;52.198;9.890;2023-05-10T08:25:29;4.33;;;3.20;;
20721;SDS011;10522;52.198;9.890;2023-05-10T08:27:55;4.40;;;3.90;;
20721;SDS011;10522;52.198;9.890;2023-05-10T08:30:20;5.57;;;3.60;;
20721;SDS011;10522;52.198;9.890;2023-05-10T08:32:46;4.57;;;3.80;;
20721;SDS011;10522;52.198;9.890;2023-05-10T08:35:11;5.73;;;3.10;;
20721;SDS011;10522;52.198;9.890;2023-05-10T08:37:37;2.30;;;2.10;;
20721;SDS011;10522;52.198;9.890;2023-05-10T08:40:02;3.10;;;2.50;;
20721;SDS011;10522;52.198;9.890;2023-05-10T08:42:28;3.37;;;1.87;;
20721;SDS011;10522;52.198;9.890;2023-05-10T08:44:58;1.90;;;1.70;;
20721;SDS011;10522;52.198;9.890;2023-05-10T08:47:24;1.70;;;1.60;;
20721;SDS011;10522;52.198;9.890;2023-05-10T08:49:50;3.10;;;1.40;;
20721;SDS011;10522;52.198;9.890;2023-05-10T08:52:16;2.00;;;1.40;;
20721;SDS011;10522;52.198;9.890;2023-05-10T08:54:43;0.93;;;0.93;;
20721;SDS011;10522;52.198;9.890;2023-05-10T08:57:09;0.90;;;0.90;;
20721;SDS011;10522;52.198;9.890;2023-05-10T08:59:35;1.60;;;1.10;;
20721;SDS011;10522;52.198;9.890;2023-05-10T09:02:04;1.17;;;1.13;;
20721;SDS011;10522;52.198;9.890;2023-05-10T09:04:31;0.80;;;0.80;;
20721;SDS011;10522;52.198;9.890;2023-05-10T09:06:56;0.90;;;0.90;;
20721;SDS011;10522;52.198;9.890;2023-05-10T09:09:22;1.10;;;1.10;;
20721;SDS011;10522;52.198;9.890;2023-05-10T09:11:50;1.00;;;0.70;;
20721;SDS011;10522;52.198;9.890;2023-05-10T09:14:16;2.20;;;0.80;;
20721;SDS011;10522;52.198;9.890;2023-05-10T09:16:43;0.70;;;0.70;;
20721;SDS011;10522;52.198;9.890;2023-05-10T09:19:09;0.70;;;0.60;;
20721;SDS011;10522;52.198;9.890;2023-05-10T09:21:35;0.50;;;0.50;;
20721;SDS011;10522;52.198;9.890;2023-05-10T09:24:07;0.97;;;0.70;;
20721;SDS011;10522;52.198;9.890;2023-05-10T09:26:34;0.60;;;0.60;;
20721;SDS011;10522;52.198;9.890;2023-05-10T09:29:00;0.60;;;0.60;;
20721;SDS011;10522;52.198;9.890;2023-05-10T09:31:45;0.80;;;0.80;;
20721;SDS011;10522;52.198;9.890;2023-05-10T09:34:16;1.17;;;0.60;;
20721;SDS011;10522;52.198;9.890;2023-05-10T09:36:50;1.37;;;0.70;;
20721;SDS011;10522;52.198;9.890;2023-05-10T09:39:20;0.90;;;0.70;;
20721;SDS011;10522;52.198;9.890;2023-05-10T09:41:45;3.13;;;1.37;;
20721;SDS011;10522;52.198;9.890;2023-05-10T09:44:12;1.20;;;1.10;;
20721;SDS011;10522;52.198;9.890;2023-05-10T09:46:45;2.90;;;0.97;;
20721;SDS011;10522;52.198;9.890;2023-05-10T09:49:14;1.10;;;1.00;;
20721;SDS011;10522;52.198;9.890;2023-05-10T09:51:40;2.33;;;1.10;;
20721;SDS011;10522;52.198;9.890;2023-05-10T09:54:10;0.77;;;0.70;;
20721;SDS011;10522;52.198;9.890;2023-05-10T09:56:37;0.90;;;0.87;;
20721;SDS011;10522;52.198;9.890;2023-05-10T09:59:05;1.73;;;1.00;;
20721;SDS011;10522;52.198;9.890;2023-05-10T10:01:32;1.73;;;1.13;;
20721;SDS011;10522;52.198;9.890;2023-05-10T10:03:58;1.30;;;1.20;;
20721;SDS011;10522;52.198;9.890;2023-05-10T10:06:27;1.77;;;0.87;;
20721;SDS011;10522;52.198;9.890;2023-05-10T10:08:53;1.10;;;1.00;;
20721;SDS011;10522;52.198;9.890;2023-05-10T10:11:20;1.23;;;0.90;;
20721;SDS011;10522;52.198;9.890;2023-05-10T10:13:45;3.33;;;1.10;;
20721;SDS011;10522;52.198;9.890;2023-05-10T10:16:11;1.13;;;1.03;;
20721;SDS011;10522;52.198;9.890;2023-05-10T10:18:37;2.20;;;0.90;;
20721;SDS011;10522;52.198;9.890;2023-05-10T10:21:04;1.50;;;1.33;;
20721;SDS011;10522;52.198;9.890;2023-05-10T10:23:31;1.53;;;1.10;;
20721;SDS011;10522;52.198;9.890;2023-05-10T10:25:57;1.57;;;1.40;;
20721;SDS011;10522;52.198;9.890;2023-05-10T10:28:31;1.20;;;1.10;;
20721;SDS011;10522;52.198;9.890;2023-05-10T10:31:20;2.40;;;1.77;;
20721;SDS011;10522;52.198;9.890;2023-05-10T10:34:01;2.13;;;1.87;;
20721;SDS011;10522;52.198;9.890;2023-05-10T10:36:31;3.93;;;1.60;;
20721;SDS011;10522;52.198;9.890;2023-05-10T10:39:07;2.27;;;1.70;;
20721;SDS011;10522;52.198;9.890;2023-05-10T10:41:35;3.33;;;2.07;;
20721;SDS011;10522;52.198;9.890;2023-05-10T10:49:38;3.63;;;2.27;;
20721;SDS011;10522;52.198;9.890;2023-05-10T10:54:58;2.60;;;2.27;;
20721;SDS011;10522;52.198;9.890;2023-05-10T10:58:12;3.03;;;2.60;;
20721;SDS011;10522;52.198;9.890;2023-05-10T11:02:58;4.23;;;2.87;;
20721;SDS011;10522;52.198;9.890;2023-05-10T11:10:39;4.17;;;2.60;;
20721;SDS011;10522;52.198;9.890;2023-05-10T11:13:13;6.13;;;2.80;;
20721;SDS011;10522;52.198;9.890;2023-05-10T11:15:39;4.23;;;2.80;;
20721;SDS011;10522;52.198;9.890;2023-05-10T11:18:23;6.03;;;2.80;;
20721;SDS011;10522;52.198;9.890;2023-05-10T11:20:52;3.40;;;3.10;;
20721;SDS011;10522;52.198;9.890;2023-05-10T11:23:20;4.90;;;2.73;;
20721;SDS011;10522;52.198;9.890;2023-05-10T11:25:46;4.30;;;2.80;;
20721;SDS011;10522;52.198;9.890;2023-05-10T11:28:13;2.90;;;2.43;;
20721;SDS011;10522;52.198;9.890;2023-05-10T11:30:41;3.53;;;2.47;;
20721;SDS011;10522;52.198;9.890;2023-05-10T11:33:09;3.80;;;2.60;;
20721;SDS011;10522;52.198;9.890;2023-05-10T11:35:40;3.33;;;2.83;;
20721;SDS011;10522;52.198;9.890;2023-05-10T11:38:09;4.87;;;2.67;;
20721;SDS011;10522;52.198;9.890;2023-05-10T11:40:36;3.83;;;2.97;;
20721;SDS011;10522;52.198;9.890;2023-05-10T11:43:03;3.73;;;2.33;;
20721;SDS011;10522;52.198;9.890;2023-05-10T11:45:31;3.67;;;3.03;;
20721;SDS011;10522;52.198;9.890;2023-05-10T11:47:58;3.73;;;2.87;;
20721;SDS011;10522;52.198;9.890;2023-05-10T11:50:25;6.93;;;3.60;;
20721;SDS011;10522;52.198;9.890;2023-05-10T11:52:53;4.40;;;2.50;;
20721;SDS011;10522;52.198;9.890;2023-05-10T11:55:20;5.70;;;3.10;;
20721;SDS011;10522;52.198;9.890;2023-05-10T11:57:46;5.53;;;2.93;;
20721;SDS011;10522;52.198;9.890;2023-05-10T12:00:12;3.10;;;2.60;;
20721;SDS011;10522;52.198;9.890;2023-05-10T12:02:38;6.20;;;2.47;;
20721;SDS011;10522;52.198;9.890;2023-05-10T12:05:04;3.77;;;2.67;;
20721;SDS011;10522;52.198;9.890;2023-05-10T12:07:31;3.87;;;3.00;;
20721;SDS011;10522;52.198;9.890;2023-05-10T12:12:37;4.40;;;2.80;;
20721;SDS011;10522;52.198;9.890;2023-05-10T12:15:04;5.43;;;2.60;;
20721;SDS011;10522;52.198;9.890;2023-05-10T12:17:31;3.17;;;2.33;;
20721;SDS011;10522;52.198;9.890;2023-05-10T12:20:12;5.23;;;2.60;;
20721;SDS011;10522;52.198;9.890;2023-05-10T12:22:40;3.73;;;2.40;;
20721;SDS011;10522;52.198;9.890;2023-05-10T12:25:06;3.87;;;2.17;;
20721;SDS011;10522;52.198;9.890;2023-05-10T12:27:33;6.70;;;2.30;;
20721;SDS011;10522;52.198;9.890;2023-05-10T12:30:00;3.00;;;2.50;;
20721;SDS011;10522;52.198;9.890;2023-05-10T12:32:41;5.83;;;2.90;;
20721;SDS011;10522;52.198;9.890;2023-05-10T12:35:07;4.07;;;2.67;;
20721;SDS011;10522;52.198;9.890;2023-05-10T12:37:33;5.73;;;3.80;;
20721;SDS011;10522;52.198;9.890;2023-05-10T12:40:04;6.13;;;4.30;;
20721;SDS011;10522;52.198;9.890;2023-05-10T12:42:31;8.07;;;4.37;;
20721;SDS011;10522;52.198;9.890;2023-05-10T12:44:57;7.00;;;3.43;;
20721;SDS011;10522;52.198;9.890;2023-05-10T12:47:22;6.70;;;3.40;;
20721;SDS011;10522;52.198;9.890;2023-05-10T12:49:48;6.53;;;3.00;;
20721;SDS011;10522;52.198;9.890;2023-05-10T12:52:14;3.93;;;3.20;;
20721;SDS011;10522;52.198;9.890;2023-05-10T12:54:39;4.03;;;2.57;;
20721;SDS011;10522;52.198;9.890;2023-05-10T12:57:05;3.10;;;2.33;;
20721;SDS011;10522;52.198;9.890;2023-05-10T12:59:30;5.03;;;2.33;;
20721;SDS011;10522;52.198;9.890;2023-05-10T13:01:56;3.20;;;2.43;;
20721;SDS011;10522;52.198;9.890;2023-05-10T13:04:22;4.33;;;2.67;;
20721;SDS011;10522;52.198;9.890;2023-05-10T13:06:48;2.27;;;2.07;;
20721;SDS011;10522;52.198;9.890;2023-05-10T13:09:14;3.83;;;2.10;;
20721;SDS011;10522;52.198;9.890;2023-05-10T13:11:40;2.90;;;1.63;;
20721;SDS011;10522;52.198;9.890;2023-05-10T13:14:06;2.53;;;2.17;;
20721;SDS011;10522;52.198;9.890;2023-05-10T13:16:31;4.50;;;2.13;;
20721;SDS011;10522;52.198;9.890;2023-05-10T13:18:57;2.33;;;1.97;;
20721;SDS011;10522;52.198;9.890;2023-05-10T13:21:23;2.70;;;2.00;;
20721;SDS011;10522;52.198;9.890;2023-05-10T13:23:50;1.87;;;1.70;;
20721;SDS011;10522;52.198;9.890;2023-05-10T13:26:15;2.40;;;2.10;;
20721;SDS011;10522;52.198;9.890;2023-05-10T13:28:41;2.13;;;1.53;;
20721;SDS011;10522;52.198;9.890;2023-05-10T13:31:07;2.00;;;1.23;;
20721;SDS011;10522;52.198;9.890;2023-05-10T13:33:33;2.80;;;1.30;;
20721;SDS011;10522;52.198;9.890;2023-05-10T13:35:58;2.03;;;1.30;;
20721;SDS011;10522;52.198;9.890;2023-05-10T13:38:24;3.03;;;1.50;;
20721;SDS011;10522;52.198;9.890;2023-05-10T13:40:49;4.07;;;1.57;;
20721;SDS011;10522;52.198;9.890;2023-05-10T13:43:17;2.03;;;1.50;;
20721;SDS011;10522;52.198;9.890;2023-05-10T13:45:43;1.93;;;1.40;;
20721;SDS011;10522;52.198;9.890;2023-05-10T13:48:09;2.57;;;2.13;;
20721;SDS011;10522;52.198;9.890;2023-05-10T13:50:34;2.43;;;1.50;;
20721;SDS011;10522;52.198;9.890;2023-05-10T13:53:00;1.60;;;1.30;;
20721;SDS011;10522;52.198;9.890;2023-05-10T13:55:26;3.57;;;1.87;;
20721;SDS011;10522;52.198;9.890;2023-05-10T13:57:52;2.10;;;1.67;;
20721;SDS011;10522;52.198;9.890;2023-05-10T14:00:17;2.70;;;1.80;;
20721;SDS011;10522;52.198;9.890;2023-05-10T14:02:43;1.60;;;1.50;;
20721;SDS011;10522;52.198;9.890;2023-05-10T14:05:09;2.20;;;1.67;;
20721;SDS011;10522;52.198;9.890;2023-05-10T14:07:34;3.17;;;2.30;;
20721;SDS011;10522;52.198;9.890;2023-05-10T14:10:00;2.10;;;1.60;;
20721;SDS011;10522;52.198;9.890;2023-05-10T14:12:26;2.60;;;1.73;;
20721;SDS011;10522;52.198;9.890;2023-05-10T14:14:52;2.30;;;1.93;;
20721;SDS011;10522;52.198;9.890;2023-05-10T14:17:17;2.70;;;1.87;;
20721;SDS011;10522;52.198;9.890;2023-05-10T14:19:44;2.40;;;1.80;;
20721;SDS011;10522;52.198;9.890;2023-05-10T14:22:09;2.03;;;1.40;;
20721;SDS011;10522;52.198;9.890;2023-05-10T14:24:37;2.67;;;1.93;;
20721;SDS011;10522;52.198;9.890;2023-05-10T14:27:03;3.13;;;1.60;;
20721;SDS011;10522;52.198;9.890;2023-05-10T14:29:28;3.67;;;2.00;;
20721;SDS011;10522;52.198;9.890;2023-05-10T14:31:54;3.33;;;2.27;;
20721;SDS011;10522;52.198;9.890;2023-05-10T14:34:20;5.67;;;1.77;;
20721;SDS011;10522;52.198;9.890;2023-05-10T14:36:45;3.27;;;1.93;;
20721;SDS011;10522;52.198;9.890;2023-05-10T14:39:11;1.73;;;1.63;;
20721;SDS011;10522;52.198;9.890;2023-05-10T14:41:38;2.97;;;1.87;;
20721;SDS011;10522;52.198;9.890;2023-05-10T14:44:06;3.47;;;1.87;;
20721;SDS011;10522;52.198;9.890;2023-05-10T14:46:31;2.57;;;2.10;;
20721;SDS011;10522;52.198;9.890;2023-05-10T14:48:57;3.47;;;2.30;;
20721;SDS011;10522;52.198;9.890;2023-05-10T14:51:23;3.00;;;2.10;;
20721;SDS011;10522;52.198;9.890;2023-05-10T14:53:48;4.60;;;2.77;;
20721;SDS011;10522;52.198;9.890;2023-05-10T14:56:14;4.57;;;2.20;;
20721;SDS011;10522;52.198;9.890;2023-05-10T14:58:40;2.90;;;2.43;;
20721;SDS011;10522;52.198;9.890;2023-05-10T15:01:05;3.13;;;2.33;;
20721;SDS011;10522;52.198;9.890;2023-05-10T15:03:31;4.20;;;2.47;;
20721;SDS011;10522;52.198;9.890;2023-05-10T15:05:57;3.97;;;2.07;;
20721;SDS011;10522;52.198;9.890;2023-05-10T15:08:23;3.07;;;2.33;;
20721;SDS011;10522;52.198;9.890;2023-05-10T15:10:49;7.97;;;2.33;;
20721;SDS011;10522;52.198;9.890;2023-05-10T15:13:16;5.93;;;2.23;;
20721;SDS011;10522;52.198;9.890;2023-05-10T15:15:41;6.53;;;2.63;;
20721;SDS011;10522;52.198;9.890;2023-05-10T15:18:08;3.93;;;2.00;;
20721;SDS011;10522;52.198;9.890;2023-05-10T15:20:34;2.87;;;2.40;;
20721;SDS011;10522;52.198;9.890;2023-05-10T15:23:00;3.83;;;2.20;;